Time;durP1;ratioP1;P1;durP2;ratioP2;P2;SDS_P1;SDS_P2;PMS_P1;PMS_P2;Temp;Humidity;BMP_temperature;BMP_pressure;BME280_temperature;BME280_humidity;BME280_pressure;Samples;Min_cycle;Max_cycle;Signal;HPM_P1;HPM_P2
2021/10/12 00:02:20;;;;;;;13.60;6.20;;;11.90;96.60;;;;;;5068309;28;20632;-83
2021/10/12 00:04:46;;;;;;;12.10;6.50;;;11.90;97.00;;;;;;5055425;28;20166;-81
2021/10/12 00:07:14;;;;;;;16.40;7.17;;;11.90;97.30;;;;;;5055376;28;20708;-81
2021/10/12 00:09:41;;;;;;;10.80;5.60;;;11.90;97.30;;;;;;5055800;28;20161;-81
2021/10/12 00:12:07;;;;;;;17.00;6.10;;;11.90;97.70;;;;;;5055355;28;20161;-85
2021/10/12 00:14:34;;;;;;;13.00;6.03;;;11.90;97.80;;;;;;5056124;28;20165;-86
2021/10/12 00:17:00;;;;;;;12.47;5.90;;;11.90;97.80;;;;;;5056045;28;20181;-86
2021/10/12 00:19:26;;;;;;;13.33;6.23;;;11.90;97.70;;;;;;5058440;28;20173;-82
2021/10/12 00:21:52;;;;;;;12.13;5.97;;;11.90;97.60;;;;;;5077137;28;20161;-82
2021/10/12 00:24:18;;;;;;;12.17;5.67;;;12.00;97.50;;;;;;5074129;28;20162;-83
2021/10/12 00:26:45;;;;;;;13.00;6.23;;;12.00;97.10;;;;;;5057609;28;20268;-83
2021/10/12 00:29:14;;;;;;;12.83;5.97;;;12.00;97.10;;;;;;5055847;28;20170;-84
2021/10/12 00:32:17;;;;;;;11.77;5.93;;;12.00;97.40;;;;;;5055927;28;20215;-84
2021/10/12 00:34:43;;;;;;;14.33;6.30;;;11.90;97.50;;;;;;5055330;28;20176;-84
2021/10/12 00:37:12;;;;;;;11.93;6.40;;;11.90;97.50;;;;;;5055495;28;20165;-83
2021/10/12 00:39:47;;;;;;;12.60;6.20;;;12.00;97.60;;;;;;5054227;28;20165;-83
2021/10/12 00:42:14;;;;;;;12.70;6.13;;;12.00;96.90;;;;;;5055867;28;20237;-87
2021/10/12 00:44:40;;;;;;;11.10;5.93;;;12.00;97.00;;;;;;5055986;28;20184;-87
2021/10/12 00:47:06;;;;;;;14.43;6.90;;;12.00;97.20;;;;;;5060935;28;20235;-83
2021/10/12 00:49:33;;;;;;;12.67;6.07;;;11.90;97.40;;;;;;5074605;28;20200;-82
2021/10/12 00:52:01;;;;;;;12.13;5.93;;;11.90;98.00;;;;;;5073617;28;20696;-83
2021/10/12 00:54:27;;;;;;;10.30;6.07;;;12.00;98.20;;;;;;5075290;28;20632;-82
2021/10/12 00:56:54;;;;;;;11.90;6.37;;;12.00;97.90;;;;;;5075680;28;20506;-82
2021/10/12 00:59:25;;;;;;;13.47;6.07;;;12.00;98.00;;;;;;5075706;28;20168;-82
2021/10/12 01:01:51;;;;;;;11.83;6.40;;;12.00;97.90;;;;;;5074754;28;20180;-84
2021/10/12 01:04:17;;;;;;;11.63;6.30;;;12.00;97.80;;;;;;5073991;28;20188;-82
2021/10/12 01:06:43;;;;;;;15.40;6.70;;;11.90;97.80;;;;;;5073135;28;20204;-84
2021/10/12 01:09:09;;;;;;;14.30;6.67;;;11.90;98.30;;;;;;5075052;28;20693;-86
2021/10/12 01:11:35;;;;;;;9.30;6.23;;;12.00;98.50;;;;;;5074443;28;20204;-87
2021/10/12 01:14:02;;;;;;;12.53;7.03;;;12.10;98.40;;;;;;5075953;28;20175;-85
2021/10/12 01:16:29;;;;;;;12.37;6.30;;;12.10;98.20;;;;;;5078226;28;20168;-83
2021/10/12 01:18:59;;;;;;;10.50;6.40;;;12.20;97.90;;;;;;5077557;28;20649;-84
2021/10/12 01:21:27;;;;;;;10.73;6.23;;;12.20;97.50;;;;;;5074212;28;20213;-84
2021/10/12 01:23:53;;;;;;;10.37;6.13;;;12.20;97.50;;;;;;5073881;28;20193;-83
2021/10/12 01:26:19;;;;;;;13.83;6.60;;;12.30;97.20;;;;;;5073929;28;20243;-84
2021/10/12 01:28:45;;;;;;;10.90;6.70;;;12.30;96.80;;;;;;5074141;28;20168;-84
2021/10/12 01:31:23;;;;;;;13.30;6.47;;;12.30;96.80;;;;;;5075147;28;20700;-90
2021/10/12 01:33:49;;;;;;;15.43;6.90;;;12.30;96.70;;;;;;5074804;28;20159;-90
2021/10/12 01:36:15;;;;;;;11.77;6.77;;;12.30;96.30;;;;;;5074794;28;20690;-90
2021/10/12 01:38:42;;;;;;;12.83;6.90;;;12.20;96.50;;;;;;5077355;28;20187;-89
2021/10/12 01:41:08;;;;;;;13.67;6.83;;;12.20;96.60;;;;;;5097078;28;20232;-87
2021/10/12 01:43:34;;;;;;;12.77;6.90;;;12.20;96.30;;;;;;5093481;28;20172;-88
2021/10/12 01:46:02;;;;;;;16.37;6.63;;;12.20;95.90;;;;;;5095663;28;20153;-87
2021/10/12 01:48:28;;;;;;;12.07;6.30;;;12.00;96.20;;;;;;5096045;28;20206;-87
2021/10/12 01:50:53;;;;;;;10.57;6.87;;;12.00;97.00;;;;;;5089820;28;20184;-86
2021/10/12 01:53:21;;;;;;;15.37;6.83;;;12.00;97.40;;;;;;5078607;28;20201;-90
2021/10/12 01:55:48;;;;;;;12.23;6.70;;;11.90;97.70;;;;;;5076045;28;20184;-86
2021/10/12 01:58:15;;;;;;;14.43;7.37;;;11.90;98.10;;;;;;5078151;28;20641;-85
2021/10/12 02:00:42;;;;;;;13.97;6.60;;;11.90;98.40;;;;;;5084025;28;20245;-88
2021/10/12 02:03:08;;;;;;;14.13;7.00;;;11.90;98.60;;;;;;5082261;28;20174;-84
2021/10/12 02:05:34;;;;;;;15.73;7.60;;;12.00;98.40;;;;;;5083960;28;20280;-89
2021/10/12 02:08:00;;;;;;;15.07;7.07;;;12.00;98.10;;;;;;5083842;28;20220;-89
2021/10/12 02:10:26;;;;;;;14.03;7.67;;;12.00;98.20;;;;;;5075311;28;20210;-89
2021/10/12 02:12:59;;;;;;;17.53;7.90;;;12.00;98.00;;;;;;5073894;28;20179;-89
2021/10/12 02:15:28;;;;;;;11.43;7.10;;;12.00;97.90;;;;;;5074466;28;20169;-88
2021/10/12 02:17:53;;;;;;;10.73;7.23;;;11.90;97.90;;;;;;5073890;28;20690;-90
2021/10/12 02:20:19;;;;;;;13.47;7.30;;;11.90;98.40;;;;;;5072584;28;20169;-83
2021/10/12 02:22:46;;;;;;;15.97;7.43;;;12.00;98.30;;;;;;5073981;28;20515;-86
2021/10/12 02:25:12;;;;;;;17.03;7.73;;;12.10;98.10;;;;;;5072017;28;20184;-85
2021/10/12 02:27:38;;;;;;;13.60;7.07;;;12.10;97.90;;;;;;5073742;28;20226;-87
2021/10/12 02:30:06;;;;;;;14.03;7.70;;;12.00;97.70;;;;;;5074041;28;20194;-88
2021/10/12 02:32:32;;;;;;;12.53;7.57;;;12.00;98.20;;;;;;5074025;28;20168;-89
2021/10/12 02:34:59;;;;;;;11.70;6.80;;;11.90;98.20;;;;;;5073674;28;20603;-88
2021/10/12 02:37:25;;;;;;;12.73;7.00;;;11.90;98.80;;;;;;5072511;28;20196;-89
2021/10/12 02:39:51;;;;;;;11.30;7.13;;;11.90;98.80;;;;;;5085349;28;20733;-84
2021/10/12 02:42:17;;;;;;;9.97;7.10;;;11.90;99.20;;;;;;5084644;28;20637;-88
2021/10/12 02:44:43;;;;;;;15.70;7.40;;;11.80;99.10;;;;;;5074079;28;20231;-86
2021/10/12 02:47:09;;;;;;;13.47;7.43;;;11.90;99.20;;;;;;5068010;28;20581;-87
2021/10/12 02:49:35;;;;;;;15.43;6.93;;;11.80;99.10;;;;;;5053829;28;20170;-89
2021/10/12 02:52:01;;;;;;;13.60;7.50;;;11.90;99.30;;;;;;5053554;28;20196;-89
2021/10/12 02:54:27;;;;;;;10.67;6.97;;;11.80;99.30;;;;;;5053774;28;20169;-87
2021/10/12 02:56:53;;;;;;;11.67;7.20;;;11.80;99.50;;;;;;5053254;28;20688;-88
2021/10/12 02:59:19;;;;;;;12.83;7.07;;;11.80;99.50;;;;;;5053116;28;20529;-89
2021/10/12 03:01:45;;;;;;;13.53;7.63;;;11.70;99.50;;;;;;5057418;28;20173;-88
2021/10/12 03:04:11;;;;;;;12.83;7.97;;;11.70;99.90;;;;;;5062360;28;20150;-88
2021/10/12 03:06:37;;;;;;;14.67;7.50;;;11.60;99.90;;;;;;5077831;28;20188;-84
2021/10/12 03:09:03;;;;;;;13.23;7.30;;;11.60;99.90;;;;;;5059427;28;20173;-83
2021/10/12 03:11:29;;;;;;;14.33;7.60;;;11.70;99.90;;;;;;5056035;28;20167;-86
2021/10/12 03:14:05;;;;;;;13.60;7.77;;;11.70;99.90;;;;;;5053380;28;20169;-89
2021/10/12 03:16:31;;;;;;;12.17;7.17;;;11.70;99.80;;;;;;5055507;28;20180;-87
2021/10/12 03:18:56;;;;;;;15.33;7.13;;;11.70;99.90;;;;;;5056735;28;20189;-88
2021/10/12 03:21:23;;;;;;;13.33;7.87;;;11.70;99.80;;;;;;5057251;28;20216;-88
2021/10/12 03:23:49;;;;;;;11.27;7.03;;;11.60;99.90;;;;;;5055922;28;20169;-88
2021/10/12 03:26:15;;;;;;;14.33;7.97;;;11.60;99.90;;;;;;5065558;28;20671;-87
2021/10/12 03:28:41;;;;;;;14.37;7.23;;;11.40;99.90;;;;;;5061486;28;20165;-89
2021/10/12 03:31:07;;;;;;;14.77;8.00;;;11.40;99.90;;;;;;5061149;28;20624;-88
2021/10/12 03:33:32;;;;;;;14.67;7.97;;;11.40;99.90;;;;;;5057129;28;20169;-89
2021/10/12 03:36:12;;;;;;;12.53;7.20;;;11.30;99.90;;;;;;5057483;28;20172;-88
2021/10/12 03:38:39;;;;;;;12.93;7.07;;;11.40;99.90;;;;;;5057518;28;20189;-89
2021/10/12 03:41:05;;;;;;;11.23;7.80;;;11.50;99.90;;;;;;5057737;28;20172;-88
2021/10/12 03:43:31;;;;;;;14.53;7.63;;;11.40;99.90;;;;;;5057334;28;20168;-87
2021/10/12 03:45:57;;;;;;;13.47;7.63;;;11.30;99.90;;;;;;5055403;28;20207;-87
2021/10/12 03:48:24;;;;;;;13.97;6.83;;;11.40;99.90;;;;;;5072721;28;20266;-86
2021/10/12 03:50:50;;;;;;;15.60;7.50;;;11.40;99.90;;;;;;5076974;28;20214;-87
2021/10/12 03:53:15;;;;;;;14.33;7.77;;;11.40;99.90;;;;;;5076229;28;20172;-86
2021/10/12 03:55:41;;;;;;;11.70;7.27;;;11.40;99.90;;;;;;5075271;28;20183;-83
2021/10/12 03:58:07;;;;;;;12.97;8.10;;;11.40;99.90;;;;;;5076399;28;20172;-83
2021/10/12 04:00:33;;;;;;;16.43;8.10;;;11.40;99.90;;;;;;5075930;28;20183;-83
2021/10/12 04:02:59;;;;;;;14.47;7.87;;;11.50;99.90;;;;;;5076505;28;20172;-86
2021/10/12 04:05:25;;;;;;;17.67;7.70;;;11.40;99.90;;;;;;5080408;28;20317;-84
2021/10/12 04:07:51;;;;;;;13.73;7.37;;;11.50;99.90;;;;;;5076510;28;20291;-86
2021/10/12 04:10:17;;;;;;;14.87;7.27;;;11.50;99.90;;;;;;5076062;28;20168;-87
2021/10/12 04:12:43;;;;;;;13.63;7.57;;;11.50;99.90;;;;;;5076031;28;20175;-83
2021/10/12 04:15:09;;;;;;;12.07;7.57;;;11.50;99.90;;;;;;5081273;28;20172;-83
2021/10/12 04:17:35;;;;;;;15.53;7.47;;;11.60;99.90;;;;;;5076836;28;20267;-87
2021/10/12 04:20:01;;;;;;;11.37;7.70;;;11.60;99.80;;;;;;5079706;28;20199;-82
2021/10/12 04:22:26;;;;;;;11.07;7.63;;;11.50;99.80;;;;;;5081201;28;20167;-85
2021/10/12 04:24:52;;;;;;;12.43;7.63;;;11.50;99.90;;;;;;5077218;28;20168;-85
2021/10/12 04:27:18;;;;;;;13.57;7.53;;;11.40;99.90;;;;;;5078739;28;20284;-85
2021/10/12 04:29:44;;;;;;;14.23;8.17;;;11.60;99.90;;;;;;5080451;28;20172;-85
2021/10/12 04:32:10;;;;;;;15.60;7.80;;;11.50;99.90;;;;;;5077995;28;20516;-83
2021/10/12 04:34:40;;;;;;;11.07;7.90;;;11.50;99.90;;;;;;5078225;28;20176;-87
2021/10/12 04:37:06;;;;;;;14.47;7.33;;;11.40;99.90;;;;;;5080939;28;20168;-87
2021/10/12 04:39:32;;;;;;;14.30;8.50;;;11.30;99.90;;;;;;5083039;28;20179;-87
2021/10/12 04:42:01;;;;;;;14.57;7.83;;;11.40;99.90;;;;;;5088474;28;20176;-88
2021/10/12 04:44:27;;;;;;;14.13;8.03;;;11.40;99.90;;;;;;5076566;28;20180;-87
2021/10/12 04:46:53;;;;;;;12.70;8.30;;;11.40;99.90;;;;;;5073541;28;20274;-86
2021/10/12 04:49:19;;;;;;;12.30;8.13;;;11.40;99.90;;;;;;5057095;28;20640;-87
2021/10/12 04:51:46;;;;;;;12.17;7.90;;;11.30;99.90;;;;;;5056304;28;20208;-89
2021/10/12 04:54:12;;;;;;;11.20;8.17;;;11.30;99.90;;;;;;5056451;28;20172;-89
2021/10/12 04:56:37;;;;;;;14.33;8.83;;;11.30;99.90;;;;;;5058284;28;20180;-88
2021/10/12 04:59:03;;;;;;;14.80;8.20;;;11.40;99.90;;;;;;5055619;28;20302;-83
2021/10/12 05:01:29;;;;;;;16.87;9.27;;;11.30;99.90;;;;;;5055678;28;20643;-88
2021/10/12 05:03:56;;;;;;;14.10;8.53;;;11.20;99.90;;;;;;5055858;28;20165;-85
2021/10/12 05:06:25;;;;;;;15.47;8.60;;;11.30;99.90;;;;;;5056196;28;20176;-86
2021/10/12 05:08:51;;;;;;;14.97;8.57;;;11.40;99.90;;;;;;5054684;28;20629;-86
2021/10/12 05:11:17;;;;;;;14.50;8.57;;;11.30;99.90;;;;;;5055707;28;20225;-86
2021/10/12 05:13:43;;;;;;;15.27;8.60;;;11.50;99.90;;;;;;5059733;28;20259;-82
2021/10/12 05:16:12;;;;;;;15.63;8.60;;;11.60;99.50;;;;;;5056253;28;20627;-83
2021/10/12 05:18:40;;;;;;;17.90;8.83;;;11.50;99.50;;;;;;5054010;28;20191;-82
2021/10/12 05:21:07;;;;;;;18.13;8.97;;;11.50;99.60;;;;;;5054359;28;20165;-82
2021/10/12 05:23:33;;;;;;;13.37;8.70;;;11.40;99.80;;;;;;5056992;28;20169;-82
2021/10/12 05:25:59;;;;;;;15.77;9.17;;;11.70;99.60;;;;;;5059864;28;20248;-81
2021/10/12 05:28:25;;;;;;;14.17;9.03;;;11.60;99.10;;;;;;5056390;28;20207;-85
2021/10/12 05:30:52;;;;;;;22.47;10.50;;;11.60;99.00;;;;;;5054865;28;20164;-85
2021/10/12 05:33:23;;;;;;;14.60;9.00;;;11.60;99.50;;;;;;5054279;28;20260;-83
2021/10/12 05:35:50;;;;;;;17.83;8.90;;;11.50;99.70;;;;;;5062373;28;20161;-83
2021/10/12 05:38:18;;;;;;;20.03;9.43;;;11.60;99.90;;;;;;5064946;28;20185;-84
2021/10/12 05:40:43;;;;;;;14.07;8.70;;;11.50;99.90;;;;;;5060864;28;20169;-86
2021/10/12 05:43:10;;;;;;;16.07;9.40;;;11.50;99.90;;;;;;5055760;28;20293;-84
2021/10/12 05:45:35;;;;;;;15.50;9.77;;;11.40;99.90;;;;;;5062566;28;20221;-82
2021/10/12 05:48:07;;;;;;;15.23;9.47;;;11.50;99.90;;;;;;5080619;28;20216;-83
2021/10/12 05:50:36;;;;;;;18.47;9.43;;;11.50;99.90;;;;;;5084565;28;20160;-82
2021/10/12 05:53:22;;;;;;;15.33;8.90;;;11.40;99.90;;;;;;5083718;28;20567;-84
2021/10/12 06:01:17;;;;;;;12.77;8.33;;;11.50;99.90;;;;;;5074846;28;20264;-82
2021/10/12 06:03:46;;;;;;;14.53;9.03;;;11.40;99.90;;;;;;5072179;28;20258;-83
2021/10/12 06:06:18;;;;;;;16.93;9.47;;;11.50;99.90;;;;;;5074137;28;20632;-82
2021/10/12 06:08:47;;;;;;;14.57;9.33;;;11.50;99.90;;;;;;5080095;28;20187;-82
2021/10/12 06:11:13;;;;;;;12.43;8.67;;;11.50;99.90;;;;;;5079924;28;20157;-86
2021/10/12 06:13:40;;;;;;;15.80;8.40;;;11.50;99.90;;;;;;5073404;28;20824;-85
2021/10/12 06:16:08;;;;;;;16.70;8.40;;;11.40;99.90;;;;;;5074618;28;20168;-84
2021/10/12 06:18:34;;;;;;;14.40;8.97;;;11.40;99.90;;;;;;5072347;28;20184;-82
2021/10/12 06:20:59;;;;;;;18.00;9.53;;;11.40;99.90;;;;;;5076059;28;20705;-87
2021/10/12 06:23:25;;;;;;;15.50;9.27;;;11.40;99.90;;;;;;5073507;28;20179;-88
2021/10/12 06:25:52;;;;;;;14.23;9.40;;;11.40;99.90;;;;;;5072557;28;20558;-87
2021/10/12 06:28:19;;;;;;;16.60;8.80;;;11.40;99.90;;;;;;5075867;28;20208;-85
2021/10/12 06:30:47;;;;;;;16.30;9.93;;;11.50;99.90;;;;;;5085016;28;20156;-80
2021/10/12 06:33:13;;;;;;;18.63;10.17;;;11.60;99.90;;;;;;5078988;28;20168;-81
2021/10/12 06:35:39;;;;;;;18.40;9.63;;;11.60;99.90;;;;;;5073605;28;20199;-82
2021/10/12 06:38:05;;;;;;;14.17;9.53;;;11.60;99.90;;;;;;5072379;28;20231;-81
2021/10/12 06:40:35;;;;;;;18.43;9.80;;;11.70;99.90;;;;;;5073509;28;20167;-82
2021/10/12 06:43:01;;;;;;;20.10;10.20;;;11.70;99.60;;;;;;5074207;28;20161;-81
2021/10/12 06:45:27;;;;;;;15.93;9.83;;;11.80;99.50;;;;;;5073786;28;20628;-81
2021/10/12 06:47:53;;;;;;;13.27;9.87;;;11.80;99.50;;;;;;5061400;28;20568;-83
2021/10/12 06:50:21;;;;;;;17.03;9.47;;;11.80;99.40;;;;;;5052805;28;20169;-83
2021/10/12 06:52:46;;;;;;;18.17;10.00;;;11.90;99.40;;;;;;5053474;28;20199;-83
2021/10/12 06:55:14;;;;;;;18.53;11.20;;;11.90;98.90;;;;;;5053980;28;20619;-82
2021/10/12 06:57:40;;;;;;;13.63;9.77;;;11.90;99.10;;;;;;5053398;28;20157;-84
2021/10/12 07:00:09;;;;;;;17.37;9.63;;;11.90;98.90;;;;;;5056642;28;20187;-82
2021/10/12 07:02:35;;;;;;;14.50;9.33;;;11.90;99.50;;;;;;5056135;28;20259;-82
2021/10/12 07:05:01;;;;;;;12.90;8.63;;;11.90;99.90;;;;;;5055976;28;20167;-82
2021/10/12 07:07:27;;;;;;;15.33;9.77;;;11.80;99.90;;;;;;5056821;28;20208;-82
2021/10/12 07:09:52;;;;;;;18.93;9.97;;;11.90;99.90;;;;;;5057004;28;20625;-83
2021/10/12 07:12:18;;;;;;;16.73;9.30;;;12.10;99.10;;;;;;5056650;28;20566;-84
2021/10/12 07:14:44;;;;;;;18.63;10.53;;;12.10;98.10;;;;;;5055676;28;20181;-83
2021/10/12 07:17:10;;;;;;;15.93;10.10;;;12.10;98.40;;;;;;5057296;28;20584;-83
2021/10/12 07:19:38;;;;;;;14.03;9.63;;;12.10;99.10;;;;;;5057071;28;20165;-82
2021/10/12 07:22:03;;;;;;;17.10;10.00;;;12.00;99.10;;;;;;5056451;28;20621;-83
2021/10/12 07:24:29;;;;;;;17.37;9.97;;;12.00;98.90;;;;;;5057697;28;20180;-82
2021/10/12 07:26:55;;;;;;;20.23;10.83;;;12.00;98.90;;;;;;5057370;28;20205;-82
2021/10/12 07:29:21;;;;;;;15.67;9.47;;;12.10;99.50;;;;;;5056320;28;20188;-87
2021/10/12 07:31:47;;;;;;;12.90;9.70;;;11.90;99.90;;;;;;5058415;28;20207;-87
2021/10/12 07:34:13;;;;;;;17.30;9.83;;;12.10;99.90;;;;;;5057317;28;20246;-87
2021/10/12 07:36:39;;;;;;;19.33;10.13;;;12.00;99.90;;;;;;5057342;28;20181;-87
2021/10/12 07:39:07;;;;;;;18.47;9.53;;;12.10;99.90;;;;;;5057360;28;20193;-85
2021/10/12 07:41:33;;;;;;;15.10;9.53;;;12.10;99.90;;;;;;5056136;28;20231;-89
2021/10/12 07:43:59;;;;;;;14.83;9.17;;;12.10;99.90;;;;;;5062002;28;20177;-87
2021/10/12 07:46:26;;;;;;;18.27;9.70;;;12.40;99.90;;;;;;5058259;28;20175;-85
2021/10/12 07:48:53;;;;;;;19.00;9.10;;;12.40;99.30;;;;;;5077202;28;20712;-87
2021/10/12 07:51:22;;;;;;;18.37;9.13;;;12.60;98.50;;;;;;5078130;28;20180;-87
2021/10/12 07:53:48;;;;;;;13.87;8.60;;;12.50;98.70;;;;;;5077564;28;20168;-87
2021/10/12 07:56:47;;;;;;;16.00;8.93;;;12.50;99.00;;;;;;5078015;28;20168;-88
2021/10/12 07:59:08;;;;;;;15.87;8.53;;;12.80;98.30;;;;;;5077613;28;20274;-82
2021/10/12 08:01:35;;;;;;;17.20;8.67;;;12.70;97.70;;;;;;5072978;28;20561;-82
2021/10/12 08:04:02;;;;;;;14.73;8.73;;;12.80;97.50;;;;;;5065009;28;20180;-82
2021/10/12 08:06:28;;;;;;;17.30;9.77;;;12.80;96.80;;;;;;5075351;28;20175;-81
2021/10/12 08:08:55;;;;;;;18.87;8.93;;;12.80;96.60;;;;;;5081958;28;20177;-84
2021/10/12 08:11:25;;;;;;;14.53;8.40;;;12.90;96.30;;;;;;5055440;28;20215;-83
2021/10/12 08:14:02;;;;;;;17.67;9.33;;;13.10;96.10;;;;;;5060290;28;20210;-82
2021/10/12 08:16:32;;;;;;;17.00;9.13;;;13.00;95.80;;;;;;5055485;28;20207;-82
2021/10/12 08:19:12;;;;;;;19.13;9.43;;;13.00;96.60;;;;;;5068773;28;20214;-81
2021/10/12 08:21:39;;;;;;;18.67;9.23;;;13.10;97.00;;;;;;5074557;28;20297;-82
2021/10/12 08:24:05;;;;;;;19.27;8.90;;;13.10;96.00;;;;;;5074202;28;20172;-83
2021/10/12 08:26:31;;;;;;;17.70;9.27;;;13.20;95.90;;;;;;5077054;28;20200;-81
2021/10/12 08:29:00;;;;;;;17.73;9.63;;;13.30;95.40;;;;;;5072995;28;20191;-82
2021/10/12 08:31:26;;;;;;;16.50;8.53;;;13.40;94.60;;;;;;5060590;28;20635;-82
2021/10/12 08:33:52;;;;;;;18.83;8.60;;;13.40;94.60;;;;;;5075297;28;20651;-82
2021/10/12 08:36:18;;;;;;;15.63;9.23;;;13.50;95.00;;;;;;5071228;28;20212;-83
2021/10/12 08:38:44;;;;;;;20.30;8.37;;;13.50;95.00;;;;;;5054347;28;20197;-82
2021/10/12 08:41:13;;;;;;;14.80;8.30;;;13.50;95.00;;;;;;5055098;28;20172;-83
2021/10/12 08:43:42;;;;;;;17.00;8.10;;;13.70;95.10;;;;;;5058829;28;20260;-81
2021/10/12 08:46:09;;;;;;;15.33;8.03;;;13.60;94.10;;;;;;5062525;28;20668;-82
2021/10/12 08:48:35;;;;;;;18.00;7.43;;;13.70;94.10;;;;;;5056534;28;20220;-84
2021/10/12 08:51:06;;;;;;;14.53;7.27;;;13.70;94.30;;;;;;5056110;28;20173;-83
2021/10/12 08:53:33;;;;;;;15.07;7.87;;;13.70;93.80;;;;;;5057486;28;20175;-83
2021/10/12 08:56:00;;;;;;;17.33;8.23;;;13.80;93.70;;;;;;5055661;28;20170;-82
2021/10/12 08:58:28;;;;;;;19.83;7.40;;;13.90;94.00;;;;;;5054963;28;20222;-84
2021/10/12 09:01:20;;;;;;;16.73;7.50;;;14.00;93.30;;;;;;5054518;28;20179;-82
2021/10/12 09:06:36;;;;;;;17.83;7.93;;;14.30;90.20;;;;;;5074626;28;20624;-83
2021/10/12 09:09:05;;;;;;;17.30;7.47;;;14.30;90.00;;;;;;5074629;28;20238;-84
2021/10/12 09:11:33;;;;;;;14.00;6.97;;;14.20;90.40;;;;;;5073562;28;20283;-83
2021/10/12 09:14:11;;;;;;;16.50;7.40;;;14.30;91.10;;;;;;5074343;28;20697;-83
2021/10/12 09:16:44;;;;;;;16.07;7.63;;;14.30;90.90;;;;;;5073112;28;20166;-81
2021/10/12 09:19:17;;;;;;;20.87;7.13;;;14.40;90.80;;;;;;5074689;28;20173;-82
2021/10/12 09:21:52;;;;;;;13.80;7.17;;;14.50;89.60;;;;;;5074735;28;20205;-81
2021/10/12 09:24:20;;;;;;;12.80;6.60;;;14.50;89.70;;;;;;5074144;28;20174;-81
2021/10/12 09:27:08;;;;;;;12.20;6.50;;;14.40;89.90;;;;;;5072811;28;20213;-85
2021/10/12 09:29:41;;;;;;;13.87;7.10;;;14.60;89.50;;;;;;5072764;28;20295;-83
2021/10/12 09:32:15;;;;;;;14.07;5.70;;;14.60;88.20;;;;;;5073795;28;20176;-82
2021/10/12 09:34:45;;;;;;;15.17;6.57;;;14.70;85.90;;;;;;5073959;28;20255;-83
2021/10/12 09:37:15;;;;;;;14.30;6.30;;;14.60;86.80;;;;;;5060637;28;20177;-82
2021/10/12 09:39:47;;;;;;;15.40;5.67;;;14.70;88.30;;;;;;5056202;28;20642;-83
2021/10/12 09:42:17;;;;;;;12.80;5.00;;;14.80;83.00;;;;;;5057583;28;20189;-81
2021/10/12 09:45:09;;;;;;;15.07;5.37;;;14.90;83.90;;;;;;5058471;28;20226;-83
2021/10/12 09:47:41;;;;;;;15.07;4.87;;;15.10;82.60;;;;;;5058032;28;20244;-84
2021/10/12 09:50:12;;;;;;;15.07;4.70;;;15.00;71.20;;;;;;5054673;28;20159;-82
2021/10/12 09:52:45;;;;;;;13.90;4.30;;;15.00;70.10;;;;;;5052972;28;20181;-81
2021/10/12 09:55:13;;;;;;;12.60;4.30;;;15.10;70.30;;;;;;5053937;28;20159;-83
2021/10/12 09:57:45;;;;;;;13.07;4.50;;;15.30;67.30;;;;;;5053483;28;20184;-83
2021/10/12 10:00:11;;;;;;;13.20;4.23;;;15.20;63.60;;;;;;5054394;28;20181;-83
2021/10/12 10:02:39;;;;;;;12.67;4.20;;;15.20;63.00;;;;;;5055277;28;20221;-83
2021/10/12 10:05:05;;;;;;;9.80;3.90;;;15.10;63.90;;;;;;5055388;28;20259;-82
2021/10/12 10:07:43;;;;;;;12.20;5.10;;;14.90;61.20;;;;;;5054110;28;20281;-83
2021/10/12 10:10:09;;;;;;;12.70;5.33;;;15.10;63.30;;;;;;5053922;28;20167;-82
2021/10/12 10:12:38;;;;;;;12.50;6.63;;;15.20;63.20;;;;;;5053676;28;20371;-83
2021/10/12 10:15:04;;;;;;;13.57;4.90;;;15.30;61.40;;;;;;5053755;28;20171;-83
2021/10/12 10:17:31;;;;;;;17.97;7.43;;;15.30;58.00;;;;;;5053837;28;20200;-85
2021/10/12 10:20:02;;;;;;;13.80;5.70;;;15.50;56.70;;;;;;5053621;28;20199;-84
2021/10/12 10:22:42;;;;;;;13.63;5.13;;;15.20;60.20;;;;;;5053728;28;20184;-85
2021/10/12 10:25:34;;;;;;;10.27;4.23;;;15.20;63.40;;;;;;5053311;28;20314;-83
2021/10/12 10:28:23;;;;;;;10.27;4.70;;;15.30;61.50;;;;;;5053778;28;20215;-83
2021/10/12 10:31:01;;;;;;;11.13;5.10;;;15.40;58.60;;;;;;5053708;28;20579;-85
2021/10/12 10:33:39;;;;;;;9.80;4.07;;;15.40;60.00;;;;;;5054349;28;20172;-82
2021/10/12 10:36:15;;;;;;;9.23;4.07;;;15.40;59.80;;;;;;5059298;28;20168;-86
2021/10/12 10:38:47;;;;;;;10.73;5.43;;;15.50;59.00;;;;;;5074228;28;20188;-86
2021/10/12 10:41:15;;;;;;;11.07;5.13;;;15.60;58.20;;;;;;5078166;28;20661;-84
2021/10/12 10:43:54;;;;;;;10.57;5.37;;;15.60;53.90;;;;;;5080087;28;20178;-84
2021/10/12 10:46:31;;;;;;;15.77;8.07;;;15.60;52.20;;;;;;5072842;28;20626;-83
2021/10/12 10:49:17;;;;;;;8.57;4.20;;;15.80;51.40;;;;;;5072316;28;20179;-83
2021/10/12 10:52:07;;;;;;;15.40;5.00;;;15.90;47.50;;;;;;5074949;28;20254;-83
2021/10/12 10:54:39;;;;;;;13.67;4.37;;;15.60;50.10;;;;;;5074916;28;20159;-83
2021/10/12 10:57:16;;;;;;;9.90;4.23;;;15.80;50.60;;;;;;5073808;28;20251;-83
2021/10/12 10:59:41;;;;;;;10.93;4.53;;;15.80;49.80;;;;;;5068154;28;20667;-83
2021/10/12 11:02:25;;;;;;;8.53;3.97;;;15.70;50.30;;;;;;5079924;28;20172;-81
2021/10/12 11:04:52;;;;;;;7.07;3.63;;;15.80;45.30;;;;;;5083121;28;20165;-82
2021/10/12 11:07:23;;;;;;;10.23;3.60;;;15.80;46.60;;;;;;5078517;28;20204;-81
2021/10/12 11:09:50;;;;;;;10.00;3.43;;;15.60;44.10;;;;;;5075519;28;20175;-77
2021/10/12 11:12:17;;;;;;;13.13;4.73;;;15.60;47.30;;;;;;5072960;28;20167;-78
2021/10/12 11:14:43;;;;;;;12.87;4.20;;;15.50;48.40;;;;;;5072853;28;20188;-81
2021/10/12 11:17:09;;;;;;;10.43;4.00;;;15.50;50.00;;;;;;5072331;28;20767;-77
2021/10/12 11:20:02;;;;;;;14.63;4.17;;;15.60;47.80;;;;;;5071562;28;20688;-78
2021/10/12 11:22:29;;;;;;;12.10;4.23;;;15.50;50.20;;;;;;5072642;28;20263;-80
2021/10/12 11:24:55;;;;;;;11.47;3.83;;;15.50;48.80;;;;;;5071268;28;20168;-79
2021/10/12 11:27:22;;;;;;;11.60;4.77;;;15.60;50.60;;;;;;5071337;28;20234;-80
2021/10/12 11:30:08;;;;;;;9.20;3.93;;;15.70;49.70;;;;;;5071240;28;20506;-79
2021/10/12 11:32:34;;;;;;;13.83;4.47;;;15.60;51.20;;;;;;5071771;28;20674;-81
2021/10/12 11:35:11;;;;;;;10.07;4.13;;;15.70;51.30;;;;;;5070632;28;20743;-79
2021/10/12 11:37:53;;;;;;;15.00;5.10;;;15.60;52.00;;;;;;5053411;28;20196;-79
2021/10/12 11:40:22;;;;;;;8.67;4.43;;;15.40;56.90;;;;;;5053360;28;20175;-78
2021/10/12 11:42:49;;;;;;;11.70;5.47;;;15.50;56.30;;;;;;5054512;28;20174;-79
2021/10/12 11:45:15;;;;;;;12.80;5.23;;;15.40;57.70;;;;;;5053009;28;20168;-80
2021/10/12 11:47:42;;;;;;;10.93;5.10;;;15.40;59.40;;;;;;5056009;28;20207;-79
2021/10/12 11:50:10;;;;;;;9.37;4.30;;;15.60;56.40;;;;;;5055491;28;20168;-78
2021/10/12 11:52:36;;;;;;;15.23;4.93;;;15.50;52.30;;;;;;5055949;28;20168;-80
2021/10/12 11:55:11;;;;;;;8.87;4.40;;;15.60;50.50;;;;;;5054212;28;20196;-78
2021/10/12 11:57:37;;;;;;;8.80;4.03;;;15.50;51.50;;;;;;5054246;28;20723;-78
2021/10/12 12:00:06;;;;;;;10.03;4.43;;;15.60;51.20;;;;;;5054172;28;20201;-77
2021/10/12 12:02:32;;;;;;;9.10;4.10;;;15.70;48.90;;;;;;5055892;28;20174;-80
2021/10/12 12:04:59;;;;;;;7.83;3.33;;;15.80;44.40;;;;;;5057454;28;20187;-78
2021/10/12 12:07:30;;;;;;;9.93;3.20;;;15.50;49.70;;;;;;5055521;28;20209;-77
2021/10/12 12:09:56;;;;;;;11.50;3.70;;;15.40;57.10;;;;;;5055591;28;20246;-80
2021/10/12 12:12:23;;;;;;;6.20;3.60;;;15.40;61.80;;;;;;5055910;28;20235;-78
2021/10/12 12:14:53;;;;;;;13.77;3.90;;;15.00;77.10;;;;;;5056069;28;20183;-80
2021/10/12 12:17:21;;;;;;;15.30;3.67;;;15.00;88.20;;;;;;5054659;28;20170;-82
2021/10/12 12:19:50;;;;;;;9.80;3.83;;;14.60;92.90;;;;;;5055225;28;20193;-82
2021/10/12 12:22:21;;;;;;;8.50;3.90;;;14.50;93.30;;;;;;5055226;28;20200;-82
2021/10/12 12:24:59;;;;;;;9.57;3.43;;;14.60;92.80;;;;;;5055266;28;20532;-83
2021/10/12 12:27:36;;;;;;;11.67;3.60;;;14.60;92.70;;;;;;5055542;28;20695;-83
2021/10/12 12:30:08;;;;;;;12.00;3.90;;;14.70;90.50;;;;;;5055612;28;20171;-81
2021/10/12 12:32:35;;;;;;;8.63;3.43;;;14.60;91.20;;;;;;5054409;28;20173;-82
2021/10/12 12:35:08;;;;;;;8.87;3.67;;;14.80;89.70;;;;;;5054206;28;20181;-83
2021/10/12 12:37:37;;;;;;;11.83;4.70;;;14.80;88.70;;;;;;5072738;28;20245;-87
2021/10/12 12:40:31;;;;;;;11.27;4.30;;;14.80;90.50;;;;;;5075129;28;20175;-85
2021/10/12 12:42:58;;;;;;;10.00;4.37;;;14.90;89.10;;;;;;5075570;28;20173;-82
2021/10/12 12:45:28;;;;;;;12.87;4.60;;;14.90;86.80;;;;;;5075656;28;20189;-82
2021/10/12 12:47:57;;;;;;;12.70;4.67;;;15.00;89.40;;;;;;5074424;28;20212;-83
2021/10/12 12:50:25;;;;;;;11.33;4.63;;;15.00;90.10;;;;;;5074853;28;20173;-82
2021/10/12 12:52:51;;;;;;;8.97;5.90;;;15.20;90.00;;;;;;5077552;28;20261;-84
2021/10/12 12:55:42;;;;;;;10.57;4.60;;;15.10;85.70;;;;;;5075336;28;20165;-81